createdAt,value
2022-12-11T00:02:07.296Z,2.48
2022-12-11T00:04:33.901Z,2.55
2022-12-11T00:07:00.884Z,2.59
2022-12-11T00:09:27.833Z,2.59
2022-12-11T00:11:54.534Z,2.49
2022-12-11T00:14:21.152Z,2.50
2022-12-11T00:16:49.513Z,2.67
2022-12-11T00:19:16.530Z,2.78
2022-12-11T00:21:43.200Z,2.86
2022-12-11T00:24:09.932Z,2.84
2022-12-11T00:26:36.604Z,2.79
2022-12-11T00:29:05.788Z,2.88
2022-12-11T00:31:32.418Z,2.90
2022-12-11T00:33:59.234Z,2.94
2022-12-11T00:36:27.143Z,2.92
2022-12-11T00:38:54.417Z,2.99
2022-12-11T00:41:21.750Z,3.04
2022-12-11T00:43:48.787Z,3.04
2022-12-11T00:46:15.422Z,2.87
2022-12-11T00:48:42.108Z,2.84
2022-12-11T00:51:08.756Z,2.85
2022-12-11T00:53:35.409Z,2.84
2022-12-11T00:56:01.939Z,2.92
2022-12-11T00:58:28.787Z,2.97
2022-12-11T01:00:55.545Z,3.04
2022-12-11T01:03:22.249Z,3.14
2022-12-11T01:05:54.017Z,3.28
2022-12-11T01:08:21.209Z,3.35
2022-12-11T01:10:48.064Z,3.24
2022-12-11T01:13:15.558Z,3.21
2022-12-11T01:15:44.910Z,3.32
2022-12-11T01:18:14.261Z,3.39
2022-12-11T01:20:42.651Z,3.44
2022-12-11T01:23:12.928Z,3.33
2022-12-11T01:25:40.153Z,3.23
2022-12-11T01:28:07.587Z,3.15
2022-12-11T01:30:34.580Z,2.97
2022-12-11T01:33:01.505Z,3.00
2022-12-11T01:35:28.994Z,3.01
2022-12-11T01:37:56.091Z,2.87
2022-12-11T01:40:23.187Z,2.56
2022-12-11T01:42:49.934Z,2.52
2022-12-11T01:45:27.168Z,2.69
2022-12-11T01:48:01.027Z,2.70
2022-12-11T01:50:29.147Z,2.54
2022-12-11T01:52:56.134Z,2.31
2022-12-11T01:55:23.034Z,2.11
2022-12-11T01:57:51.656Z,2.05
2022-12-11T02:00:19.439Z,2.12
2022-12-11T02:02:46.760Z,2.29
2022-12-11T02:05:13.707Z,2.44
2022-12-11T02:07:50.972Z,2.52
2022-12-11T02:10:18.065Z,2.73
2022-12-11T02:13:13.435Z,2.84
2022-12-11T02:15:58.509Z,2.63
2022-12-11T02:18:28.184Z,2.68
2022-12-11T02:21:03.364Z,2.75
2022-12-11T02:23:58.586Z,2.64
2022-12-11T02:26:52.928Z,2.44
2022-12-11T02:29:46.087Z,2.20
2022-12-11T02:32:39.445Z,2.20
2022-12-11T02:35:13.139Z,2.26
2022-12-11T02:37:43.715Z,2.10
2022-12-11T02:40:14.475Z,2.09
2022-12-11T02:42:47.726Z,2.09
2022-12-11T02:45:16.440Z,2.10
2022-12-11T02:47:47.069Z,2.10
2022-12-11T02:50:17.493Z,2.17
2022-12-11T02:52:46.460Z,2.29
2022-12-11T02:55:15.322Z,2.51
2022-12-11T02:57:59.923Z,2.71
2022-12-11T03:00:26.639Z,2.80
2022-12-11T03:02:53.345Z,2.84
2022-12-11T03:05:20.468Z,2.92
2022-12-11T03:07:47.289Z,2.85
2022-12-11T03:10:19.149Z,2.82
2022-12-11T03:12:53.405Z,2.47
2022-12-11T03:15:24.038Z,2.26
2022-12-11T03:18:19.791Z,2.24
2022-12-11T03:20:54.494Z,2.32
2022-12-11T03:23:30.943Z,2.47
2022-12-11T03:26:02.309Z,2.54
2022-12-11T03:28:47.847Z,2.57
2022-12-11T03:31:24.143Z,2.48
2022-12-11T03:33:54.752Z,2.64
2022-12-11T03:36:26.161Z,2.92
2022-12-11T03:39:07.269Z,3.17
2022-12-11T03:41:37.410Z,3.28
2022-12-11T03:44:04.348Z,3.40
2022-12-11T03:46:35.264Z,3.26
2022-12-11T03:49:09.143Z,3.11
2022-12-11T03:51:37.000Z,3.02
2022-12-11T03:54:04.109Z,3.08
2022-12-11T03:56:34.901Z,2.98
2022-12-11T03:59:01.769Z,2.90
2022-12-11T04:01:28.591Z,2.84
2022-12-11T04:04:01.072Z,2.93
2022-12-11T04:06:27.778Z,2.75
2022-12-11T04:08:56.669Z,2.82
2022-12-11T04:11:35.239Z,2.79
2022-12-11T04:14:28.709Z,2.24
2022-12-11T04:16:57.426Z,2.19
2022-12-11T04:19:43.361Z,2.18
2022-12-11T04:22:30.969Z,2.15
2022-12-11T04:24:57.687Z,2.34
2022-12-11T04:27:43.273Z,2.41
2022-12-11T04:30:13.725Z,2.35
2022-12-11T04:32:40.595Z,2.37
2022-12-11T04:35:09.454Z,2.42
2022-12-11T04:37:38.313Z,2.61
2022-12-11T04:40:06.995Z,2.79
2022-12-11T04:42:33.855Z,2.82
2022-12-11T04:45:00.591Z,2.79
2022-12-11T04:47:27.638Z,2.82
2022-12-11T04:49:54.431Z,2.59
2022-12-11T04:52:21.104Z,2.53
2022-12-11T04:54:48.280Z,2.42
2022-12-11T04:57:15.121Z,2.42
2022-12-11T04:59:42.060Z,2.50
2022-12-11T05:02:08.857Z,2.43
2022-12-11T05:04:35.834Z,2.30
2022-12-11T05:07:02.426Z,2.39
2022-12-11T05:09:32.369Z,2.57
2022-12-11T05:11:59.029Z,2.45
2022-12-11T05:14:26.349Z,2.30
2022-12-11T05:16:53.108Z,2.19
2022-12-11T05:19:19.943Z,2.23
2022-12-11T05:21:46.534Z,2.09
2022-12-11T05:24:13.194Z,1.95
2022-12-11T05:26:39.696Z,1.96
2022-12-11T05:29:06.496Z,2.22
2022-12-11T05:31:33.719Z,2.41
2022-12-11T05:34:00.715Z,2.25
2022-12-11T05:36:30.435Z,2.06
2022-12-11T05:38:58.364Z,1.93
2022-12-11T05:41:27.352Z,1.85
2022-12-11T05:43:54.513Z,2.08
2022-12-11T05:46:26.648Z,2.18
2022-12-11T05:48:59.338Z,2.22
2022-12-11T05:51:27.052Z,2.29
2022-12-11T05:53:55.373Z,2.39
2022-12-11T05:56:30.092Z,2.59
2022-12-11T05:58:57.782Z,2.66
2022-12-11T06:01:33.938Z,2.85
2022-12-11T06:04:01.099Z,3.03
2022-12-11T06:06:28.378Z,3.09
2022-12-11T06:08:57.019Z,3.07
2022-12-11T06:11:25.092Z,3.01
2022-12-11T06:13:52.751Z,3.05
2022-12-11T06:16:20.672Z,3.09
2022-12-11T06:18:48.312Z,3.06
2022-12-11T06:21:20.607Z,3.00
2022-12-11T06:23:48.939Z,2.95
2022-12-11T06:26:16.983Z,2.83
2022-12-11T06:28:43.660Z,2.81
2022-12-11T06:31:10.679Z,2.74
2022-12-11T06:33:38.153Z,2.66
2022-12-11T06:36:10.524Z,2.47
2022-12-11T06:38:37.785Z,2.43
2022-12-11T06:41:05.644Z,2.42
2022-12-11T06:43:33.361Z,2.32
2022-12-11T06:46:03.838Z,2.18
2022-12-11T06:48:31.209Z,2.22
2022-12-11T06:50:58.060Z,2.26
2022-12-11T06:53:24.787Z,2.33
2022-12-11T06:55:51.492Z,2.32
2022-12-11T06:58:18.186Z,2.30
2022-12-11T07:00:44.831Z,2.41
2022-12-11T07:03:11.731Z,2.47
2022-12-11T07:05:38.455Z,2.48
2022-12-11T07:08:05.318Z,2.49
2022-12-11T07:10:32.756Z,2.51
2022-12-11T07:12:59.413Z,2.48
2022-12-11T07:15:26.412Z,2.43
2022-12-11T07:17:53.160Z,2.37
2022-12-11T07:20:19.986Z,2.47
2022-12-11T07:22:47.043Z,2.53
2022-12-11T07:25:14.424Z,2.52
2022-12-11T07:27:41.784Z,2.53
2022-12-11T07:30:09.526Z,2.58
2022-12-11T07:32:36.521Z,2.53
2022-12-11T07:35:03.639Z,2.45
2022-12-11T07:37:30.423Z,2.37
2022-12-11T07:39:57.162Z,2.33
2022-12-11T07:42:24.438Z,2.34
2022-12-11T07:44:50.975Z,2.13
2022-12-11T07:47:17.605Z,1.96
2022-12-11T07:49:46.940Z,2.06
2022-12-11T07:52:13.591Z,2.22
2022-12-11T07:54:40.272Z,2.43
2022-12-11T07:57:12.273Z,2.35
2022-12-11T07:59:41.825Z,2.22
2022-12-11T08:02:11.917Z,2.52
2022-12-11T08:04:39.172Z,2.77
2022-12-11T08:07:05.788Z,2.54
2022-12-11T08:09:32.695Z,2.24
2022-12-11T08:11:59.997Z,2.21
2022-12-11T08:14:26.835Z,2.51
2022-12-11T08:16:53.804Z,2.48
2022-12-11T08:19:20.626Z,2.40
2022-12-11T08:21:47.425Z,2.37
2022-12-11T08:24:16.389Z,2.64
2022-12-11T08:26:44.504Z,2.90
2022-12-11T08:29:11.146Z,3.04
2022-12-11T08:31:39.468Z,3.32
2022-12-11T08:34:06.153Z,3.61
2022-12-11T08:36:32.887Z,3.59
2022-12-11T08:39:01.283Z,3.29
2022-12-11T08:41:30.229Z,3.54
2022-12-11T08:43:58.722Z,3.47
2022-12-11T08:46:27.974Z,3.35
2022-12-11T08:48:55.506Z,3.22
2022-12-11T08:51:25.067Z,3.01
2022-12-11T08:53:54.392Z,3.16
2022-12-11T08:56:22.894Z,3.27
2022-12-11T08:58:50.421Z,3.30
2022-12-11T09:01:23.178Z,3.24
2022-12-11T09:03:51.581Z,3.40
2022-12-11T09:06:20.848Z,3.65
2022-12-11T09:08:52.577Z,3.88
2022-12-11T09:11:25.815Z,3.85
2022-12-11T09:13:55.459Z,3.67
2022-12-11T09:16:26.526Z,3.31
2022-12-11T09:18:55.500Z,3.31
2022-12-11T09:21:25.613Z,3.24
2022-12-11T09:23:57.784Z,3.48
2022-12-11T09:26:28.502Z,3.53
2022-12-11T09:28:56.082Z,3.64
2022-12-11T09:31:29.690Z,3.89
2022-12-11T09:34:01.196Z,3.84
2022-12-11T09:36:30.937Z,3.50
2022-12-11T09:39:05.851Z,3.31
2022-12-11T09:41:54.779Z,3.29
2022-12-11T09:44:32.669Z,3.43
2022-12-11T09:46:59.834Z,3.69
2022-12-11T09:49:33.991Z,3.52
2022-12-11T09:52:17.705Z,3.54
2022-12-11T09:54:54.522Z,3.54
2022-12-11T09:57:21.122Z,3.70
2022-12-11T10:00:20.224Z,3.79
2022-12-11T10:02:59.172Z,3.71
2022-12-11T10:05:42.621Z,3.57
2022-12-11T10:08:10.584Z,3.45
2022-12-11T10:10:46.931Z,3.43
2022-12-11T10:13:42.269Z,3.64
2022-12-11T10:16:24.623Z,3.74
2022-12-11T10:18:52.299Z,3.66
2022-12-11T10:21:19.974Z,3.76
2022-12-11T10:23:56.122Z,3.73
2022-12-11T10:26:29.651Z,3.86
2022-12-11T10:29:00.531Z,3.59
2022-12-11T10:31:27.536Z,3.36
2022-12-11T10:34:04.485Z,3.36
2022-12-11T10:36:35.448Z,3.44
2022-12-11T10:39:11.051Z,3.70
2022-12-11T10:41:40.185Z,3.67
2022-12-11T10:44:22.931Z,4.05
2022-12-11T10:47:04.660Z,4.15
2022-12-11T10:49:34.918Z,4.50
2022-12-11T10:52:44.179Z,4.74
2022-12-11T10:55:28.892Z,4.44
2022-12-11T10:58:02.730Z,4.26
2022-12-11T11:00:43.196Z,4.33
2022-12-11T11:03:26.227Z,4.41
2022-12-11T11:06:15.577Z,4.32
2022-12-11T11:08:46.160Z,4.35
2022-12-11T11:11:22.057Z,4.46
2022-12-11T11:13:52.754Z,4.69
2022-12-11T11:16:22.004Z,4.33
2022-12-11T11:18:57.559Z,4.34
2022-12-11T11:21:26.415Z,4.54
2022-12-11T11:23:54.332Z,4.65
2022-12-11T11:26:34.294Z,4.78
2022-12-11T11:29:28.868Z,4.87
2022-12-11T11:31:55.682Z,4.70
2022-12-11T11:34:22.312Z,4.96
2022-12-11T11:36:57.948Z,5.18
2022-12-11T11:39:35.810Z,5.24
2022-12-11T11:45:05.330Z,5.12
2022-12-11T11:47:45.661Z,4.95
2022-12-11T11:50:28.442Z,4.72
2022-12-11T11:53:11.060Z,4.68
2022-12-11T11:55:54.028Z,4.56
2022-12-11T11:58:41.394Z,4.53
2022-12-11T12:01:21.302Z,4.15
2022-12-11T12:03:50.527Z,3.92
2022-12-11T12:06:21.046Z,3.83
2022-12-11T12:09:06.489Z,4.00
2022-12-11T12:11:45.098Z,4.00
2022-12-11T12:17:26.492Z,4.13
2022-12-11T12:20:15.343Z,3.99
2022-12-11T12:23:00.452Z,3.93
2022-12-11T12:25:43.308Z,3.93
2022-12-11T12:28:31.314Z,4.00
2022-12-11T12:31:34.009Z,4.11
2022-12-11T12:34:16.248Z,3.78
2022-12-11T12:37:03.739Z,3.96
2022-12-11T12:40:11.058Z,4.01
2022-12-11T12:43:19.643Z,4.06
2022-12-11T12:45:52.234Z,4.19
2022-12-11T12:48:21.164Z,4.35
2022-12-11T12:50:51.163Z,4.30
2022-12-11T12:53:23.327Z,4.22
2022-12-11T12:55:57.301Z,4.29
2022-12-11T12:58:27.673Z,4.38
2022-12-11T13:00:55.809Z,4.24
2022-12-11T13:03:30.339Z,4.33
2022-12-11T13:06:01.269Z,4.56
2022-12-11T13:08:37.919Z,4.38
2022-12-11T13:11:11.408Z,4.27
2022-12-11T13:13:42.287Z,4.34
2022-12-11T13:16:15.437Z,4.38
2022-12-11T13:18:44.777Z,4.40
2022-12-11T13:21:31.662Z,4.54
2022-12-11T13:24:21.227Z,4.44
2022-12-11T13:26:49.558Z,4.25
2022-12-11T13:29:39.540Z,4.41
2022-12-11T13:32:09.866Z,4.27
2022-12-11T13:34:42.780Z,4.15
2022-12-11T13:37:31.955Z,4.11
2022-12-11T13:40:00.040Z,3.91
2022-12-11T13:42:33.305Z,3.83
2022-12-11T13:45:03.309Z,3.78
2022-12-11T13:47:35.133Z,3.97
2022-12-11T13:50:33.029Z,4.02
2022-12-11T13:53:03.482Z,3.98
2022-12-11T13:55:33.670Z,3.86
2022-12-11T13:58:00.700Z,3.76
2022-12-11T14:00:30.636Z,3.72
2022-12-11T14:03:01.809Z,3.75
2022-12-11T14:05:29.960Z,3.68
2022-12-11T14:08:00.023Z,3.67
2022-12-11T14:10:30.000Z,3.59
2022-12-11T14:13:05.668Z,3.72
2022-12-11T14:15:37.525Z,3.83
2022-12-11T14:18:05.611Z,3.91
2022-12-11T14:20:34.459Z,4.02
2022-12-11T14:23:17.213Z,3.93
2022-12-11T14:25:53.946Z,3.86
2022-12-11T14:28:22.142Z,3.80
2022-12-11T14:30:52.178Z,3.77
2022-12-11T14:33:26.090Z,3.76
2022-12-11T14:35:55.775Z,3.82
2022-12-11T14:38:26.100Z,3.96
2022-12-11T14:41:01.931Z,3.97
2022-12-11T14:43:33.432Z,4.05
2022-12-11T14:46:11.027Z,3.89
2022-12-11T14:48:48.126Z,3.92
2022-12-11T14:51:18.802Z,3.80
2022-12-11T14:53:49.057Z,3.88
2022-12-11T14:56:25.925Z,3.94
2022-12-11T14:58:57.647Z,3.90
2022-12-11T15:01:33.556Z,3.95
2022-12-11T15:04:22.164Z,3.86
2022-12-11T15:06:51.311Z,3.92
2022-12-11T15:09:26.509Z,4.02
2022-12-11T15:11:57.065Z,4.05
2022-12-11T15:14:25.593Z,4.03
2022-12-11T15:16:55.028Z,4.06
2022-12-11T15:19:27.509Z,4.02
2022-12-11T15:21:54.583Z,4.07
2022-12-11T15:24:29.596Z,3.91
2022-12-11T15:27:01.745Z,3.85
2022-12-11T15:29:39.987Z,3.97
2022-12-11T15:32:09.556Z,4.03
2022-12-11T15:34:52.464Z,4.14
2022-12-11T15:37:24.031Z,4.14
2022-12-11T15:39:51.216Z,3.98
2022-12-11T15:42:26.164Z,4.01
2022-12-11T15:44:55.653Z,4.04
2022-12-11T15:47:28.834Z,4.08
2022-12-11T15:49:59.004Z,4.03
2022-12-11T15:52:25.696Z,4.01
2022-12-11T15:54:52.382Z,3.96
2022-12-11T15:57:24.309Z,3.97
2022-12-11T15:59:52.970Z,3.93
2022-12-11T16:02:20.288Z,3.91
2022-12-11T16:04:47.932Z,3.97
2022-12-11T16:07:23.837Z,3.81
2022-12-11T16:09:51.456Z,3.71
2022-12-11T16:12:19.022Z,3.82
2022-12-11T16:14:46.717Z,3.87
2022-12-11T16:17:15.544Z,3.82
2022-12-11T16:19:44.003Z,3.76
2022-12-11T16:22:12.190Z,3.78
2022-12-11T16:24:39.448Z,3.75
2022-12-11T16:27:07.476Z,3.80
2022-12-11T16:29:39.106Z,3.86
2022-12-11T16:32:08.321Z,3.93
2022-12-11T16:34:37.391Z,3.93
2022-12-11T16:37:08.460Z,3.76
2022-12-11T16:39:37.266Z,3.63
2022-12-11T16:42:05.175Z,3.61
2022-12-11T16:44:32.140Z,3.62
2022-12-11T16:46:59.073Z,3.55
2022-12-11T16:49:25.739Z,3.57
2022-12-11T16:51:52.408Z,3.61
2022-12-11T16:54:19.187Z,3.61
2022-12-11T16:56:46.092Z,3.67
2022-12-11T16:59:12.995Z,3.80
2022-12-11T17:01:40.579Z,3.85
2022-12-11T17:04:07.439Z,3.93
2022-12-11T17:06:34.281Z,4.00
2022-12-11T17:09:01.002Z,3.95
2022-12-11T17:11:27.722Z,3.93
2022-12-11T17:13:56.460Z,3.83
2022-12-11T17:16:26.032Z,3.72
2022-12-11T17:18:53.308Z,3.74
2022-12-11T17:21:22.135Z,3.74
2022-12-11T17:23:49.488Z,3.83
2022-12-11T17:26:17.326Z,3.93
2022-12-11T17:28:47.048Z,3.93
2022-12-11T17:31:17.564Z,3.80
2022-12-11T17:33:45.646Z,3.75
2022-12-11T17:36:21.075Z,3.69
2022-12-11T17:38:48.518Z,3.69
2022-12-11T17:41:20.441Z,3.60
2022-12-11T17:43:52.485Z,3.75
2022-12-11T17:46:20.814Z,3.79
2022-12-11T17:48:48.061Z,3.85
2022-12-11T17:51:21.235Z,4.00
2022-12-11T17:53:48.180Z,4.06
2022-12-11T17:56:18.446Z,4.03
2022-12-11T17:58:45.655Z,3.94
2022-12-11T18:01:13.774Z,3.79
2022-12-11T18:03:41.733Z,3.79
2022-12-11T18:06:13.824Z,3.69
2022-12-11T18:08:41.492Z,3.70
2022-12-11T18:11:15.505Z,3.58
2022-12-11T18:13:44.011Z,3.57
2022-12-11T18:16:33.320Z,3.56
2022-12-11T18:19:00.456Z,3.53
2022-12-11T18:21:33.777Z,3.59
2022-12-11T18:24:01.264Z,3.74
2022-12-11T18:26:28.966Z,3.85
2022-12-11T18:28:55.717Z,3.92
2022-12-11T18:31:23.546Z,3.92
2022-12-11T18:33:53.501Z,3.72
2022-12-11T18:36:21.566Z,3.49
2022-12-11T18:38:48.927Z,3.48
2022-12-11T18:41:19.794Z,3.43
2022-12-11T18:43:47.117Z,3.52
2022-12-11T18:46:23.121Z,3.68
2022-12-11T18:48:51.112Z,3.69
2022-12-11T18:51:23.829Z,3.73
2022-12-11T18:53:53.621Z,3.80
2022-12-11T18:56:22.698Z,3.91
2022-12-11T18:58:50.646Z,4.01
2022-12-11T19:01:26.898Z,3.97
2022-12-11T19:04:02.371Z,3.98
2022-12-11T19:06:33.974Z,3.92
2022-12-11T19:09:01.269Z,3.71
2022-12-11T19:11:30.164Z,3.71
2022-12-11T19:13:57.473Z,3.81
2022-12-11T19:16:30.090Z,3.91
2022-12-11T19:19:05.739Z,3.94
2022-12-11T19:21:33.808Z,3.94
2022-12-11T19:24:00.688Z,4.01
2022-12-11T19:26:29.169Z,4.06
2022-12-11T19:29:00.255Z,4.04
2022-12-11T19:31:30.960Z,3.89
2022-12-11T19:33:58.362Z,3.80
2022-12-11T19:36:29.016Z,3.85
2022-12-11T19:39:01.190Z,3.82
2022-12-11T19:41:30.891Z,3.83
2022-12-11T19:43:59.273Z,3.82
2022-12-11T19:46:27.711Z,3.64
2022-12-11T19:48:57.052Z,3.72
2022-12-11T19:51:38.356Z,3.82
2022-12-11T19:54:08.939Z,3.89
2022-12-11T19:56:36.040Z,3.95
2022-12-11T19:59:05.846Z,3.88
2022-12-11T20:01:35.119Z,3.82
2022-12-11T20:04:06.065Z,3.70
2022-12-11T20:06:35.498Z,3.64
2022-12-11T20:09:03.664Z,3.63
2022-12-11T20:11:32.230Z,3.72
2022-12-11T20:14:00.857Z,3.91
2022-12-11T20:17:02.063Z,4.12
2022-12-11T20:19:18.892Z,4.29
2022-12-11T20:21:48.379Z,4.41
2022-12-11T20:24:15.013Z,4.45
2022-12-11T20:26:47.214Z,4.44
2022-12-11T20:29:14.797Z,4.48
2022-12-11T20:31:45.339Z,4.48
2022-12-11T20:34:12.931Z,4.46
2022-12-11T20:36:40.122Z,4.45
2022-12-11T20:39:16.765Z,4.16
2022-12-11T20:41:43.949Z,3.87
2022-12-11T20:44:10.895Z,3.67
2022-12-11T20:46:38.087Z,3.82
2022-12-11T20:49:05.019Z,4.03
2022-12-11T20:51:33.126Z,4.17
2022-12-11T20:54:00.396Z,4.27
2022-12-11T20:56:29.527Z,4.30
2022-12-11T20:58:58.226Z,4.21
2022-12-11T21:01:31.375Z,4.11
2022-12-11T21:03:59.485Z,4.10
2022-12-11T21:06:33.508Z,4.19
2022-12-11T21:09:02.951Z,3.96
2022-12-11T21:11:30.172Z,4.10
2022-12-11T21:13:58.591Z,4.18
2022-12-11T21:16:25.545Z,4.29
2022-12-11T21:19:02.955Z,4.35
2022-12-11T21:21:32.195Z,4.32
2022-12-11T21:24:00.279Z,4.31
2022-12-11T21:26:26.880Z,4.34
2022-12-11T21:28:53.920Z,4.37
2022-12-11T21:31:21.827Z,4.37
2022-12-11T21:33:51.262Z,4.43
2022-12-11T21:36:18.310Z,4.48
2022-12-11T21:38:46.312Z,4.50
2022-12-11T21:41:25.369Z,4.55
2022-12-11T21:46:42.479Z,4.45
2022-12-11T21:49:13.513Z,4.50
2022-12-11T21:51:50.191Z,4.56
2022-12-11T21:54:19.544Z,4.57
2022-12-11T21:56:47.239Z,4.62
2022-12-11T21:59:14.603Z,4.64
2022-12-11T22:01:45.898Z,4.63
2022-12-11T22:04:14.486Z,4.56
2022-12-11T22:06:46.980Z,4.55
2022-12-11T22:09:15.478Z,4.54
2022-12-11T22:11:45.143Z,4.53
2022-12-11T22:14:13.892Z,4.56
2022-12-11T22:16:41.188Z,4.57
2022-12-11T22:19:08.042Z,4.49
2022-12-11T22:21:34.754Z,4.44
2022-12-11T22:24:01.530Z,4.36
2022-12-11T22:26:29.333Z,4.32
2022-12-11T22:28:57.394Z,4.31
2022-12-11T22:31:29.856Z,4.35
2022-12-11T22:33:56.711Z,4.29
2022-12-11T22:36:28.461Z,4.32
2022-12-11T22:38:55.708Z,4.31
2022-12-11T22:41:28.358Z,4.25
2022-12-11T22:43:56.235Z,4.17
2022-12-11T22:46:26.627Z,4.18
2022-12-11T22:48:55.455Z,4.19
2022-12-11T22:51:22.847Z,4.26
2022-12-11T22:53:51.032Z,4.36
2022-12-11T22:56:18.528Z,4.30
2022-12-11T22:58:45.712Z,4.20
2022-12-11T23:01:21.205Z,4.26
2022-12-11T23:03:49.581Z,4.38
2022-12-11T23:06:29.296Z,4.42
2022-12-11T23:08:59.851Z,4.22
2022-12-11T23:11:29.448Z,3.98
2022-12-11T23:13:57.433Z,3.96
2022-12-11T23:16:26.639Z,3.81
2022-12-11T23:18:55.271Z,3.87
2022-12-11T23:21:25.777Z,4.09
2022-12-11T23:23:58.757Z,4.26
2022-12-11T23:26:34.713Z,4.37
2022-12-11T23:29:02.813Z,4.43
2022-12-11T23:31:33.095Z,4.46
2022-12-11T23:34:00.360Z,4.47
2022-12-11T23:36:32.225Z,4.53
2022-12-11T23:39:02.264Z,4.55
2022-12-11T23:41:31.377Z,4.59
2022-12-11T23:43:59.478Z,4.58
2022-12-11T23:46:27.176Z,4.59
2022-12-11T23:48:55.043Z,4.62
2022-12-11T23:51:23.769Z,4.62
2022-12-11T23:53:51.896Z,4.64
2022-12-11T23:56:22.403Z,4.61
2022-12-11T23:58:49.379Z,4.58
